Time;durP1;ratioP1;P1;durP2;ratioP2;P2;SDS_P1;SDS_P2;PMS_P1;PMS_P2;Temp;Humidity;BMP_temperature;BMP_pressure;BME280_temperature;BME280_humidity;BME280_pressure;Samples;Min_cycle;Max_cycle;Signal;HPM_P1;HPM_P2
2022/10/02 00:01:01;;;;;;;25.07;7.27;;;;;;;;;;6275196;22;20246;-83
2022/10/02 00:03:31;;;;;;;11.63;6.50;;;;;;;;;;6302589;22;20239;-85
2022/10/02 00:06:03;;;;;;;14.43;7.13;;;;;;;;;;6302388;22;20188;-86
2022/10/02 00:08:32;;;;;;;12.43;7.13;;;;;;;;;;6304040;22;20197;-85
2022/10/02 00:11:02;;;;;;;16.80;7.37;;;;;;;;;;6303077;22;20196;-85
2022/10/02 00:13:34;;;;;;;16.73;7.57;;;;;;;;;;6302055;22;20173;-84
2022/10/02 00:16:17;;;;;;;15.30;6.70;;;;;;;;;;6302047;22;20165;-85
2022/10/02 00:18:48;;;;;;;15.67;6.93;;;;;;;;;;6302721;22;20197;-85
2022/10/02 00:21:24;;;;;;;11.63;6.30;;;;;;;;;;6301786;22;20483;-84
2022/10/02 00:23:52;;;;;;;12.33;6.80;;;;;;;;;;6303524;22;20169;-84
2022/10/02 00:26:23;;;;;;;10.30;6.37;;;;;;;;;;6302210;22;20196;-84
2022/10/02 00:28:55;;;;;;;24.90;7.00;;;;;;;;;;6302682;22;20228;-88
2022/10/02 00:31:29;;;;;;;12.80;6.43;;;;;;;;;;6302254;22;20508;-87
2022/10/02 00:34:07;;;;;;;15.80;6.63;;;;;;;;;;6304335;22;20157;-87
2022/10/02 00:36:40;;;;;;;17.70;8.17;;;;;;;;;;6301125;22;20169;-86
2022/10/02 00:39:11;;;;;;;12.97;6.60;;;;;;;;;;6305405;22;20177;-86
2022/10/02 00:41:54;;;;;;;17.57;7.87;;;;;;;;;;6307566;22;20154;-86
2022/10/02 00:44:32;;;;;;;19.73;7.83;;;;;;;;;;6304154;22;20157;-84
2022/10/02 00:47:05;;;;;;;18.37;7.40;;;;;;;;;;6304216;22;20741;-86
2022/10/02 00:49:38;;;;;;;26.63;7.90;;;;;;;;;;6306008;22;20157;-85
2022/10/02 00:52:10;;;;;;;15.23;7.27;;;;;;;;;;6278460;22;20600;-86
2022/10/02 00:55:05;;;;;;;17.73;7.00;;;;;;;;;;6301320;22;20176;-86
2022/10/02 00:57:40;;;;;;;14.90;7.50;;;;;;;;;;6284295;22;20547;-87
2022/10/02 01:00:11;;;;;;;17.90;7.87;;;;;;;;;;6290608;22;20177;-86
2022/10/02 01:02:59;;;;;;;16.73;6.70;;;;;;;;;;6244186;22;20235;-84
2022/10/02 01:05:29;;;;;;;17.23;7.27;;;;;;;;;;6270899;22;20810;-83
2022/10/02 01:07:56;;;;;;;13.77;6.77;;;;;;;;;;6274003;22;20217;-84
2022/10/02 01:10:30;;;;;;;20.47;9.10;;;;;;;;;;6271885;22;20180;-85
2022/10/02 01:12:59;;;;;;;15.67;7.37;;;;;;;;;;6244777;22;20204;-85
2022/10/02 01:15:34;;;;;;;20.90;8.73;;;;;;;;;;6245057;22;20192;-84
2022/10/02 01:18:02;;;;;;;14.87;6.80;;;;;;;;;;6273036;22;20189;-84
2022/10/02 01:20:33;;;;;;;15.50;6.83;;;;;;;;;;6271997;22;20170;-84
2022/10/02 01:23:05;;;;;;;17.83;6.93;;;;;;;;;;6272175;22;20162;-85
2022/10/02 01:25:36;;;;;;;17.10;6.87;;;;;;;;;;6243836;22;20197;-85
2022/10/02 01:28:05;;;;;;;18.63;7.10;;;;;;;;;;6271933;22;20186;-85
2022/10/02 01:30:33;;;;;;;16.73;7.10;;;;;;;;;;6244241;22;20525;-85
2022/10/02 01:33:02;;;;;;;15.50;7.33;;;;;;;;;;6245182;22;20211;-85
2022/10/02 01:35:31;;;;;;;13.03;6.83;;;;;;;;;;6270051;22;20204;-84
2022/10/02 01:37:59;;;;;;;13.93;6.10;;;;;;;;;;6272123;22;20657;-82
2022/10/02 01:40:28;;;;;;;15.90;6.37;;;;;;;;;;6271210;22;20174;-84
2022/10/02 01:43:00;;;;;;;15.07;6.37;;;;;;;;;;6271127;22;20515;-86
2022/10/02 01:45:33;;;;;;;13.53;6.03;;;;;;;;;;6244077;22;20278;-86
2022/10/02 01:48:03;;;;;;;13.53;6.33;;;;;;;;;;6272013;22;20201;-86
2022/10/02 01:50:34;;;;;;;16.50;6.43;;;;;;;;;;6270357;22;20631;-85
2022/10/02 01:53:06;;;;;;;11.70;6.03;;;;;;;;;;6245235;22;20189;-85
2022/10/02 01:55:39;;;;;;;11.70;6.63;;;;;;;;;;6271955;22;20166;-85
2022/10/02 01:58:17;;;;;;;12.77;6.07;;;;;;;;;;6275240;22;20573;-86
2022/10/02 02:00:50;;;;;;;15.10;6.70;;;;;;;;;;6282732;22;20177;-85
2022/10/02 02:03:21;;;;;;;12.37;6.20;;;;;;;;;;6276150;22;20162;-84
2022/10/02 02:05:53;;;;;;;10.10;5.90;;;;;;;;;;6272753;22;20181;-84
2022/10/02 02:08:27;;;;;;;16.00;6.50;;;;;;;;;;6269850;22;20276;-84
2022/10/02 02:11:03;;;;;;;17.20;5.80;;;;;;;;;;6271196;22;20169;-84
2022/10/02 02:13:33;;;;;;;14.77;5.93;;;;;;;;;;6270684;22;20173;-85
2022/10/02 02:16:03;;;;;;;11.17;5.70;;;;;;;;;;6244503;22;20170;-84
2022/10/02 02:18:33;;;;;;;12.47;5.80;;;;;;;;;;6270489;22;20367;-87
2022/10/02 02:21:11;;;;;;;11.03;6.03;;;;;;;;;;6271835;22;20205;-85
2022/10/02 02:23:41;;;;;;;12.37;6.03;;;;;;;;;;6271428;22;20635;-85
2022/10/02 02:26:11;;;;;;;10.60;5.80;;;;;;;;;;6272229;22;20198;-85
2022/10/02 02:28:42;;;;;;;12.10;6.03;;;;;;;;;;6246526;22;20197;-84
2022/10/02 02:31:12;;;;;;;14.07;5.80;;;;;;;;;;6246622;22;20178;-85
2022/10/02 02:33:50;;;;;;;15.00;5.77;;;;;;;;;;6273632;22;20180;-86
2022/10/02 02:36:19;;;;;;;16.13;6.07;;;;;;;;;;6277287;22;20212;-88
2022/10/02 02:38:49;;;;;;;14.00;6.17;;;;;;;;;;6298270;22;20177;-87
2022/10/02 02:41:19;;;;;;;11.90;6.20;;;;;;;;;;6286440;22;20181;-88
2022/10/02 02:43:50;;;;;;;8.03;4.93;;;;;;;;;;6275847;22;20215;-87
2022/10/02 02:46:23;;;;;;;13.40;5.93;;;;;;;;;;6273297;22;20182;-87
2022/10/02 02:48:53;;;;;;;16.27;5.73;;;;;;;;;;6247845;22;20197;-86
2022/10/02 02:51:23;;;;;;;11.67;5.47;;;;;;;;;;6248236;22;20236;-86
2022/10/02 02:53:55;;;;;;;8.87;5.40;;;;;;;;;;6272728;22;20170;-87
2022/10/02 02:56:22;;;;;;;11.57;6.07;;;;;;;;;;6274966;22;20189;-87
2022/10/02 02:58:54;;;;;;;11.13;5.63;;;;;;;;;;6275800;22;20200;-86
2022/10/02 03:01:25;;;;;;;9.47;4.97;;;;;;;;;;6274108;22;20271;-88
2022/10/02 03:03:52;;;;;;;9.10;5.47;;;;;;;;;;6303009;22;20418;-88
2022/10/02 03:06:36;;;;;;;12.47;5.80;;;;;;;;;;6309218;22;20212;-87
2022/10/02 03:09:05;;;;;;;8.67;5.03;;;;;;;;;;6288656;22;20274;-87
2022/10/02 03:11:42;;;;;;;11.60;5.40;;;;;;;;;;6306731;22;20172;-86
2022/10/02 03:14:21;;;;;;;11.43;5.83;;;;;;;;;;6304658;22;20179;-87
2022/10/02 03:16:55;;;;;;;10.57;5.53;;;;;;;;;;6303006;22;20177;-87
2022/10/02 03:19:31;;;;;;;13.37;5.23;;;;;;;;;;6304533;22;20157;-87
2022/10/02 03:22:03;;;;;;;13.53;5.40;;;;;;;;;;6301946;22;20183;-87
2022/10/02 03:24:33;;;;;;;11.70;5.07;;;;;;;;;;6303737;22;20679;-88
2022/10/02 03:27:05;;;;;;;14.93;5.17;;;;;;;;;;6276691;22;20201;-86
2022/10/02 03:29:42;;;;;;;12.07;5.50;;;;;;;;;;6303609;22;20220;-87
2022/10/02 03:32:12;;;;;;;20.03;6.03;;;;;;;;;;6302963;22;20161;-85
2022/10/02 03:34:40;;;;;;;9.93;5.10;;;;;;;;;;6302654;22;20179;-86
2022/10/02 03:37:08;;;;;;;12.33;5.23;;;;;;;;;;6301279;22;20193;-87
2022/10/02 03:39:40;;;;;;;12.37;5.30;;;;;;;;;;6303074;22;20244;-85
2022/10/02 03:42:09;;;;;;;10.43;4.93;;;;;;;;;;6304201;22;20361;-85
2022/10/02 03:44:37;;;;;;;10.57;4.73;;;;;;;;;;6302707;22;20620;-86
2022/10/02 03:47:04;;;;;;;17.77;5.07;;;;;;;;;;6303234;22;20588;-86
2022/10/02 03:49:34;;;;;;;12.70;5.30;;;;;;;;;;6303290;22;20592;-86
2022/10/02 03:52:02;;;;;;;14.63;5.30;;;;;;;;;;6301826;22;20204;-85
2022/10/02 03:54:32;;;;;;;14.70;5.40;;;;;;;;;;6301836;22;20177;-84
2022/10/02 03:57:02;;;;;;;10.23;4.60;;;;;;;;;;6302421;22;20193;-85
2022/10/02 03:59:41;;;;;;;11.63;4.90;;;;;;;;;;6298268;22;20185;-86
2022/10/02 04:02:12;;;;;;;13.40;5.23;;;;;;;;;;6270766;22;20197;-85
2022/10/02 04:04:44;;;;;;;15.07;5.53;;;;;;;;;;6245867;22;20177;-86
2022/10/02 04:07:13;;;;;;;12.03;5.47;;;;;;;;;;6271614;22;20619;-86
2022/10/02 04:09:43;;;;;;;16.53;5.47;;;;;;;;;;6272820;22;20162;-85
2022/10/02 04:12:12;;;;;;;15.97;5.80;;;;;;;;;;6244971;22;20174;-87
2022/10/02 04:14:43;;;;;;;12.87;6.43;;;;;;;;;;6272256;22;20177;-85
2022/10/02 04:17:13;;;;;;;13.87;5.43;;;;;;;;;;6271096;22;20185;-86
2022/10/02 04:19:45;;;;;;;14.23;5.80;;;;;;;;;;6245715;22;20208;-86
2022/10/02 04:22:16;;;;;;;14.23;5.30;;;;;;;;;;6245711;22;20158;-86
2022/10/02 04:24:46;;;;;;;16.20;5.00;;;;;;;;;;6245455;22;20227;-86
2022/10/02 04:27:16;;;;;;;16.60;5.83;;;;;;;;;;6245428;22;20280;-86
2022/10/02 04:29:46;;;;;;;16.77;5.70;;;;;;;;;;6272643;22;20162;-87
2022/10/02 04:32:15;;;;;;;14.03;5.53;;;;;;;;;;6272367;22;20169;-85
2022/10/02 04:34:44;;;;;;;13.40;5.43;;;;;;;;;;6244581;22;20177;-87
2022/10/02 04:37:32;;;;;;;12.47;5.40;;;;;;;;;;6246385;22;20239;-85
2022/10/02 04:40:08;;;;;;;12.63;5.03;;;;;;;;;;6256712;22;20185;-86
2022/10/02 04:42:48;;;;;;;18.87;5.90;;;;;;;;;;6246735;22;20203;-85
2022/10/02 04:45:25;;;;;;;14.03;5.87;;;;;;;;;;6273438;22;20248;-86
2022/10/02 04:48:10;;;;;;;9.50;5.43;;;;;;;;;;6244942;22;20730;-86
2022/10/02 04:50:55;;;;;;;13.07;5.30;;;;;;;;;;6272455;22;20157;-86
2022/10/02 04:53:32;;;;;;;13.87;5.27;;;;;;;;;;6272006;22;20196;-86
2022/10/02 04:56:07;;;;;;;13.40;5.43;;;;;;;;;;6273295;22;20165;-86
2022/10/02 04:58:45;;;;;;;16.80;5.53;;;;;;;;;;6272866;22;20189;-87
2022/10/02 05:01:15;;;;;;;23.67;5.40;;;;;;;;;;6247763;22;20181;-88
2022/10/02 05:03:55;;;;;;;13.03;5.90;;;;;;;;;;6276499;22;20184;-87
2022/10/02 05:06:30;;;;;;;14.83;5.70;;;;;;;;;;6302412;22;20197;-87
2022/10/02 05:09:02;;;;;;;10.57;5.20;;;;;;;;;;6301829;22;20654;-86
2022/10/02 05:11:39;;;;;;;18.87;5.90;;;;;;;;;;6302330;22;20161;-85
2022/10/02 05:14:14;;;;;;;14.67;5.07;;;;;;;;;;6302636;22;20175;-85
2022/10/02 05:16:51;;;;;;;16.33;4.93;;;;;;;;;;6301879;22;20164;-86
2022/10/02 05:19:26;;;;;;;11.97;5.37;;;;;;;;;;6303006;22;20607;-87
2022/10/02 05:22:10;;;;;;;7.63;5.30;;;;;;;;;;6303374;22;20160;-86
2022/10/02 05:24:52;;;;;;;16.40;5.40;;;;;;;;;;6299844;22;20177;-87
2022/10/02 05:27:33;;;;;;;16.80;4.93;;;;;;;;;;6299301;22;20207;-86
2022/10/02 05:30:06;;;;;;;24.60;5.20;;;;;;;;;;6276075;22;20612;-85
2022/10/02 05:32:51;;;;;;;11.77;4.77;;;;;;;;;;6301904;22;20161;-86
2022/10/02 05:35:24;;;;;;;16.13;5.47;;;;;;;;;;6230074;22;20173;-86
2022/10/02 05:37:58;;;;;;;12.63;5.27;;;;;;;;;;6303178;22;20193;-86
2022/10/02 05:40:29;;;;;;;10.43;5.33;;;;;;;;;;6302499;22;20157;-85
2022/10/02 05:43:03;;;;;;;11.33;5.63;;;;;;;;;;6301344;22;20173;-86
2022/10/02 05:45:33;;;;;;;12.03;5.07;;;;;;;;;;6302297;22;20185;-86
2022/10/02 05:48:08;;;;;;;13.13;5.20;;;;;;;;;;6303526;22;20201;-87
2022/10/02 05:50:37;;;;;;;13.57;5.47;;;;;;;;;;6303986;22;20157;-86
2022/10/02 05:53:07;;;;;;;18.33;6.20;;;;;;;;;;6303512;22;20177;-86
2022/10/02 05:55:36;;;;;;;14.53;5.83;;;;;;;;;;6303607;22;20172;-87
2022/10/02 05:58:10;;;;;;;15.37;5.23;;;;;;;;;;6276300;22;20193;-87
2022/10/02 06:00:43;;;;;;;19.27;6.70;;;;;;;;;;6283372;22;20185;-88
2022/10/02 06:03:15;;;;;;;18.30;6.47;;;;;;;;;;6273185;22;20185;-87
2022/10/02 06:05:45;;;;;;;19.43;6.17;;;;;;;;;;6274329;22;20169;-86
2022/10/02 06:08:16;;;;;;;13.23;5.57;;;;;;;;;;6248092;22;20714;-86
2022/10/02 06:10:47;;;;;;;15.33;5.17;;;;;;;;;;6246916;22;20641;-86
2022/10/02 06:13:19;;;;;;;18.07;5.97;;;;;;;;;;6246024;22;20181;-86
2022/10/02 06:15:50;;;;;;;16.27;5.77;;;;;;;;;;6274543;22;20162;-88
2022/10/02 06:18:23;;;;;;;14.30;5.97;;;;;;;;;;6275597;22;20672;-89
2022/10/02 06:20:52;;;;;;;11.90;5.40;;;;;;;;;;6248544;22;20181;-90
2022/10/02 06:23:22;;;;;;;16.20;5.83;;;;;;;;;;6249993;22;20247;-88
2022/10/02 06:25:53;;;;;;;17.63;5.77;;;;;;;;;;6274520;22;20189;-88
2022/10/02 06:28:24;;;;;;;14.17;5.37;;;;;;;;;;6275434;22;20251;-88
2022/10/02 06:30:55;;;;;;;14.40;5.80;;;;;;;;;;6275026;22;20174;-89
2022/10/02 06:33:25;;;;;;;23.10;6.30;;;;;;;;;;6274275;22;20177;-87
2022/10/02 06:36:02;;;;;;;21.17;7.40;;;;;;;;;;6275238;22;20701;-89
2022/10/02 06:38:37;;;;;;;21.60;7.53;;;;;;;;;;6275167;22;20225;-87
2022/10/02 06:41:12;;;;;;;23.03;6.80;;;;;;;;;;6271731;22;20165;-87
2022/10/02 06:43:52;;;;;;;18.23;7.97;;;;;;;;;;6272322;22;20184;-87
2022/10/02 06:46:33;;;;;;;21.13;5.97;;;;;;;;;;6270143;22;20664;-87
2022/10/02 06:49:05;;;;;;;17.03;5.73;;;;;;;;;;6244970;22;20178;-89
2022/10/02 06:51:38;;;;;;;19.57;5.90;;;;;;;;;;6272618;22;20174;-87
2022/10/02 06:54:18;;;;;;;20.20;5.23;;;;;;;;;;6275120;22;20181;-85
2022/10/02 06:56:52;;;;;;;10.57;3.13;;;;;;;;;;6280014;22;20469;-85
2022/10/02 06:59:27;;;;;;;11.07;2.73;;;;;;;;;;6280233;22;20215;-85
2022/10/02 07:01:58;;;;;;;19.47;3.13;;;;;;;;;;6254673;22;20193;-86
2022/10/02 07:04:34;;;;;;;14.13;2.60;;;;;;;;;;6246669;22;20691;-85
2022/10/02 07:07:11;;;;;;;16.73;3.13;;;;;;;;;;6274855;22;20250;-84
2022/10/02 07:09:45;;;;;;;10.80;2.20;;;;;;;;;;6273215;22;20209;-86
2022/10/02 07:12:29;;;;;;;14.07;2.60;;;;;;;;;;6272189;22;20162;-85
2022/10/02 07:15:10;;;;;;;9.33;2.50;;;;;;;;;;6247313;22;20256;-87
2022/10/02 07:17:43;;;;;;;13.17;2.80;;;;;;;;;;6270467;22;20212;-87
2022/10/02 07:20:21;;;;;;;10.17;2.50;;;;;;;;;;6272892;22;20178;-86
2022/10/02 07:22:55;;;;;;;10.37;2.63;;;;;;;;;;6245678;22;20174;-87
2022/10/02 07:25:32;;;;;;;14.67;2.40;;;;;;;;;;6273684;22;20553;-86
2022/10/02 07:28:04;;;;;;;9.93;2.17;;;;;;;;;;6273382;22;20545;-85
2022/10/02 07:30:36;;;;;;;9.43;2.20;;;;;;;;;;6272627;22;20165;-86
2022/10/02 07:33:11;;;;;;;8.03;2.10;;;;;;;;;;6245605;22;20173;-86
2022/10/02 07:35:40;;;;;;;7.93;1.90;;;;;;;;;;6272180;22;20184;-85
2022/10/02 07:38:16;;;;;;;8.30;1.80;;;;;;;;;;6273118;22;20200;-86
2022/10/02 07:40:47;;;;;;;13.93;1.90;;;;;;;;;;6273158;22;20161;-86
2022/10/02 07:43:25;;;;;;;5.33;1.93;;;;;;;;;;6245532;22;20332;-85
2022/10/02 07:45:59;;;;;;;5.67;1.67;;;;;;;;;;6245953;22;20173;-86
2022/10/02 07:48:33;;;;;;;5.70;1.50;;;;;;;;;;6271644;22;20253;-86
2022/10/02 07:51:03;;;;;;;6.50;1.47;;;;;;;;;;6247191;22;20165;-86
2022/10/02 07:53:38;;;;;;;6.47;1.63;;;;;;;;;;6271666;22;20702;-87
2022/10/02 07:56:06;;;;;;;7.73;1.70;;;;;;;;;;6245284;22;20187;-87
2022/10/02 07:58:37;;;;;;;6.37;1.77;;;;;;;;;;6271948;22;20189;-85
2022/10/02 08:01:11;;;;;;;6.23;1.17;;;;;;;;;;6271940;22;20181;-84
2022/10/02 08:03:40;;;;;;;7.97;1.67;;;;;;;;;;6271026;22;20253;-84
2022/10/02 08:06:08;;;;;;;4.03;1.13;;;;;;;;;;6271386;22;20186;-83
2022/10/02 08:08:39;;;;;;;5.83;1.20;;;;;;;;;;6270748;22;20202;-85
2022/10/02 08:11:09;;;;;;;4.60;1.30;;;;;;;;;;6268174;22;20178;-82
2022/10/02 08:13:39;;;;;;;6.33;1.00;;;;;;;;;;6269392;22;20169;-84
2022/10/02 08:16:12;;;;;;;6.53;1.17;;;;;;;;;;6271099;22;20192;-87
2022/10/02 08:18:42;;;;;;;6.93;1.20;;;;;;;;;;6271835;22;20197;-83
2022/10/02 08:21:12;;;;;;;2.93;0.83;;;;;;;;;;6273040;22;20224;-85
2022/10/02 08:23:43;;;;;;;5.53;0.90;;;;;;;;;;6272113;22;20184;-84
2022/10/02 08:26:15;;;;;;;4.27;1.37;;;;;;;;;;6272424;22;20162;-88
2022/10/02 08:28:45;;;;;;;7.07;1.10;;;;;;;;;;6272912;22;20664;-84
2022/10/02 08:31:14;;;;;;;5.27;1.40;;;;;;;;;;6246283;22;20178;-90
2022/10/02 08:33:42;;;;;;;5.23;1.30;;;;;;;;;;6274450;22;20181;-84
2022/10/02 08:36:24;;;;;;;4.57;1.40;;;;;;;;;;6272908;22;20197;-86
2022/10/02 08:39:09;;;;;;;9.27;1.60;;;;;;;;;;6254162;22;20205;-87
2022/10/02 08:42:03;;;;;;;5.93;1.53;;;;;;;;;;6246340;22;20201;-84
2022/10/02 08:44:45;;;;;;;5.80;1.13;;;;;;;;;;6243381;22;20712;-81
2022/10/02 08:47:32;;;;;;;6.87;1.33;;;;;;;;;;6243911;22;20202;-80
2022/10/02 08:50:13;;;;;;;4.27;1.00;;;;;;;;;;6270682;22;20205;-80
2022/10/02 08:53:07;;;;;;;5.87;1.17;;;;;;;;;;6269086;22;20174;-83
2022/10/02 08:55:43;;;;;;;5.60;1.20;;;;;;;;;;6241532;22;20178;-79
2022/10/02 08:58:32;;;;;;;8.37;1.30;;;;;;;;;;6267634;22;20189;-83
2022/10/02 09:01:13;;;;;;;4.47;1.40;;;;;;;;;;6273562;22;20181;-86
2022/10/02 09:04:04;;;;;;;5.83;1.33;;;;;;;;;;6271340;22;20225;-86
2022/10/02 09:06:57;;;;;;;5.30;1.13;;;;;;;;;;6221850;22;20703;-87
2022/10/02 09:09:44;;;;;;;5.83;1.10;;;;;;;;;;6249646;22;20229;-83
2022/10/02 09:12:26;;;;;;;4.37;0.90;;;;;;;;;;6271420;22;20181;-84
2022/10/02 09:15:00;;;;;;;1.97;0.80;;;;;;;;;;6274238;22;20639;-82
2022/10/02 09:17:44;;;;;;;5.87;1.27;;;;;;;;;;6245801;22;20190;-82
2022/10/02 09:20:17;;;;;;;4.00;1.30;;;;;;;;;;6245219;22;20177;-83
2022/10/02 09:22:55;;;;;;;3.57;0.93;;;;;;;;;;6274782;22;20609;-83
2022/10/02 09:25:25;;;;;;;1.97;0.90;;;;;;;;;;6274033;22;20617;-83
2022/10/02 09:28:16;;;;;;;3.37;1.07;;;;;;;;;;6273790;22;20197;-86
2022/10/02 09:31:07;;;;;;;3.43;0.93;;;;;;;;;;6271827;22;20666;-85
2022/10/02 09:33:50;;;;;;;7.70;1.50;;;;;;;;;;6272630;22;20165;-84
2022/10/02 09:36:36;;;;;;;4.03;1.30;;;;;;;;;;6273882;22;20177;-86
2022/10/02 09:39:30;;;;;;;5.70;0.97;;;;;;;;;;6249765;22;20173;-81
2022/10/02 09:42:19;;;;;;;9.23;1.77;;;;;;;;;;6276855;22;20191;-85
2022/10/02 09:51:35;;;;;;;6.60;2.03;;;;;;;;;;6013113;23;20698;-82
2022/10/02 09:57:21;;;;;;;10.63;1.60;;;;;;;;;;6181023;23;20210;-83
2022/10/02 10:00:07;;;;;;;4.10;1.30;;;;;;;;;;6242528;22;20185;-85
2022/10/02 10:02:58;;;;;;;8.47;1.90;;;;;;;;;;6279789;22;20161;-86
2022/10/02 10:05:52;;;;;;;9.37;1.50;;;;;;;;;;6275268;22;20178;-86
2022/10/02 10:08:41;;;;;;;6.43;1.40;;;;;;;;;;6190338;22;20195;-85
2022/10/02 10:11:28;;;;;;;8.67;1.63;;;;;;;;;;6268363;22;20539;-83
2022/10/02 10:14:12;;;;;;;5.90;1.50;;;;;;;;;;6275205;22;20174;-87
2022/10/02 10:16:50;;;;;;;4.50;1.57;;;;;;;;;;6276262;22;20169;-84
2022/10/02 10:19:40;;;;;;;6.87;1.97;;;;;;;;;;6276600;22;20172;-83
2022/10/02 10:22:31;;;;;;;3.40;1.80;;;;;;;;;;6275400;22;20231;-84
2022/10/02 10:25:15;;;;;;;2.33;1.27;;;;;;;;;;6276657;22;20624;-85
2022/10/02 10:27:53;;;;;;;4.90;1.80;;;;;;;;;;6276056;22;20668;-83
2022/10/02 10:30:32;;;;;;;8.13;1.87;;;;;;;;;;6244164;22;20185;-86
2022/10/02 10:33:22;;;;;;;8.47;1.57;;;;;;;;;;6275580;22;20165;-85
2022/10/02 10:35:59;;;;;;;5.37;1.73;;;;;;;;;;6275858;22;20162;-83
2022/10/02 10:38:49;;;;;;;4.57;1.60;;;;;;;;;;6248109;22;20271;-85
2022/10/02 10:41:49;;;;;;;11.57;2.40;;;;;;;;;;6235844;22;20280;-85
2022/10/02 10:44:38;;;;;;;5.93;1.80;;;;;;;;;;6272849;22;20166;-84
2022/10/02 10:47:24;;;;;;;5.97;1.87;;;;;;;;;;6294183;22;20842;-87
2022/10/02 10:50:09;;;;;;;5.87;2.40;;;;;;;;;;6293777;22;20200;-83
2022/10/02 10:52:46;;;;;;;4.90;1.90;;;;;;;;;;6289769;22;20217;-84
2022/10/02 10:55:18;;;;;;;5.43;2.43;;;;;;;;;;6295662;22;20162;-85
2022/10/02 10:57:55;;;;;;;8.07;2.47;;;;;;;;;;6265824;22;20198;-85
2022/10/02 11:00:24;;;;;;;7.27;2.60;;;;;;;;;;6299885;22;20185;-85
2022/10/02 11:02:59;;;;;;;9.73;2.77;;;;;;;;;;6267820;22;20178;-85
2022/10/02 11:05:35;;;;;;;7.27;2.20;;;;;;;;;;6267094;22;20184;-86
2022/10/02 11:08:22;;;;;;;7.13;2.77;;;;;;;;;;6292518;22;20265;-86
2022/10/02 11:11:01;;;;;;;13.10;3.07;;;;;;;;;;6292520;22;20214;-84
2022/10/02 11:13:36;;;;;;;13.87;2.90;;;;;;;;;;6245701;22;20181;-85
2022/10/02 11:16:12;;;;;;;11.67;2.30;;;;;;;;;;6274764;22;20261;-86
2022/10/02 11:18:58;;;;;;;7.10;3.10;;;;;;;;;;6246803;22;20238;-85
2022/10/02 11:21:46;;;;;;;7.10;3.07;;;;;;;;;;6256625;22;20643;-85
2022/10/02 11:34:56;;;;;;;7.50;3.10;;;;;;;;;;6257164;22;20484;-84
2022/10/02 11:37:38;;;;;;;8.70;3.30;;;;;;;;;;6303508;22;20687;-82
2022/10/02 11:40:18;;;;;;;8.27;3.43;;;;;;;;;;6294211;22;20288;-85
2022/10/02 11:45:54;;;;;;;8.80;3.23;;;;;;;;;;6301694;22;20639;-83
2022/10/02 11:48:34;;;;;;;9.10;4.03;;;;;;;;;;6300331;22;20580;-82
2022/10/02 11:51:20;;;;;;;10.00;4.30;;;;;;;;;;6300313;22;20506;-85
2022/10/02 11:54:05;;;;;;;6.63;3.13;;;;;;;;;;6300819;22;20199;-79
2022/10/02 11:57:00;;;;;;;11.50;3.50;;;;;;;;;;6300621;22;20173;-79
2022/10/02 11:59:44;;;;;;;8.80;2.93;;;;;;;;;;6301116;22;20173;-79
2022/10/02 12:02:14;;;;;;;6.87;3.47;;;;;;;;;;6295635;22;20181;-78
2022/10/02 12:04:51;;;;;;;32.93;15.90;;;;;;;;;;6302373;22;20180;-79
2022/10/02 12:07:23;;;;;;;9.83;3.07;;;;;;;;;;6303039;22;20196;-80
2022/10/02 12:10:01;;;;;;;6.70;2.80;;;;;;;;;;6300863;22;20277;-79
2022/10/02 12:12:42;;;;;;;11.23;3.37;;;;;;;;;;6301903;22;20187;-81
2022/10/02 12:15:14;;;;;;;9.63;3.10;;;;;;;;;;6303441;22;20219;-79
2022/10/02 12:17:52;;;;;;;11.63;2.70;;;;;;;;;;6303316;22;20199;-79
2022/10/02 12:28:54;;;;;;;8.67;2.50;;;;;;;;;;6303520;22;20204;-79
2022/10/02 12:31:27;;;;;;;8.13;2.40;;;;;;;;;;6304720;22;20168;-80
2022/10/02 12:34:00;;;;;;;7.87;2.20;;;;;;;;;;6305733;22;20204;-81
2022/10/02 12:36:32;;;;;;;8.67;2.20;;;;;;;;;;6308404;22;20184;-80
2022/10/02 12:39:05;;;;;;;8.87;2.40;;;;;;;;;;6302717;22;20173;-81
2022/10/02 12:41:40;;;;;;;3.73;2.00;;;;;;;;;;6300569;22;20184;-81
2022/10/02 12:44:25;;;;;;;6.10;2.00;;;;;;;;;;6297140;22;20248;-82
2022/10/02 12:47:12;;;;;;;9.83;2.53;;;;;;;;;;6300850;22;20639;-81
2022/10/02 12:49:51;;;;;;;7.37;2.17;;;;;;;;;;6293134;22;20215;-81
2022/10/02 12:52:37;;;;;;;5.83;2.13;;;;;;;;;;6298944;22;20172;-81
2022/10/02 12:55:22;;;;;;;7.43;2.10;;;;;;;;;;6283432;22;20173;-81
2022/10/02 12:57:57;;;;;;;7.37;2.10;;;;;;;;;;6286321;22;20197;-81
2022/10/02 13:00:26;;;;;;;7.50;1.73;;;;;;;;;;6275067;22;20172;-80
2022/10/02 13:03:08;;;;;;;6.13;2.50;;;;;;;;;;6300788;22;20605;-83
2022/10/02 13:05:52;;;;;;;6.97;1.80;;;;;;;;;;6299380;22;20655;-82
2022/10/02 13:08:36;;;;;;;6.53;2.17;;;;;;;;;;6300980;22;20196;-81
2022/10/02 13:11:09;;;;;;;6.17;2.20;;;;;;;;;;6298343;22;20234;-82
2022/10/02 13:13:47;;;;;;;4.10;1.50;;;;;;;;;;6299698;22;20204;-83
2022/10/02 13:16:21;;;;;;;4.63;1.63;;;;;;;;;;6302034;22;20510;-81
2022/10/02 13:19:01;;;;;;;7.23;2.00;;;;;;;;;;6301191;22;20204;-82
2022/10/02 13:21:36;;;;;;;4.97;1.90;;;;;;;;;;6300992;22;20246;-81
2022/10/02 13:24:18;;;;;;;8.10;2.87;;;;;;;;;;6297008;22;20199;-80
2022/10/02 13:26:50;;;;;;;6.93;1.47;;;;;;;;;;6300221;22;20578;-81
2022/10/02 13:29:35;;;;;;;8.07;2.03;;;;;;;;;;6301977;22;20213;-82
2022/10/02 13:32:18;;;;;;;5.60;1.70;;;;;;;;;;6301297;22;20169;-81
2022/10/02 13:35:00;;;;;;;77.27;23.47;;;;;;;;;;6298215;22;20231;-86
2022/10/02 13:37:36;;;;;;;12.77;4.00;;;;;;;;;;6297195;22;20196;-85
2022/10/02 13:40:20;;;;;;;4.50;2.07;;;;;;;;;;6275040;22;20269;-83
2022/10/02 13:42:53;;;;;;;6.47;1.90;;;;;;;;;;6301304;22;20260;-85
2022/10/02 13:45:25;;;;;;;7.87;1.60;;;;;;;;;;6301497;22;20204;-84
2022/10/02 13:47:57;;;;;;;6.43;2.00;;;;;;;;;;6300426;22;20203;-83
2022/10/02 13:50:34;;;;;;;6.73;1.77;;;;;;;;;;6299554;22;20213;-84
2022/10/02 13:53:20;;;;;;;4.33;1.87;;;;;;;;;;6297501;22;20222;-85
2022/10/02 13:55:50;;;;;;;7.80;1.47;;;;;;;;;;6303907;22;20180;-88
2022/10/02 13:58:28;;;;;;;6.43;1.60;;;;;;;;;;6300664;22;20196;-88
2022/10/02 14:01:12;;;;;;;4.97;1.60;;;;;;;;;;6301898;22;20519;-85
2022/10/02 14:03:47;;;;;;;6.93;1.80;;;;;;;;;;6301608;22;20166;-87
2022/10/02 14:06:19;;;;;;;6.90;1.80;;;;;;;;;;6303470;22;20226;-87
2022/10/02 14:08:58;;;;;;;11.53;2.13;;;;;;;;;;6305137;22;20366;-87
2022/10/02 14:11:37;;;;;;;6.30;1.80;;;;;;;;;;6302023;22;20164;-87
2022/10/02 14:14:12;;;;;;;8.47;1.80;;;;;;;;;;6305014;22;20177;-89
2022/10/02 14:16:48;;;;;;;5.77;1.60;;;;;;;;;;6305013;22;20236;-87
2022/10/02 14:19:32;;;;;;;5.73;1.60;;;;;;;;;;6307939;22;20711;-87
2022/10/02 14:22:12;;;;;;;6.20;1.70;;;;;;;;;;6284649;22;20470;-88
2022/10/02 14:25:03;;;;;;;5.20;1.73;;;;;;;;;;6303170;22;20177;-86
2022/10/02 14:27:51;;;;;;;4.30;1.67;;;;;;;;;;6303863;22;20219;-86
2022/10/02 14:30:20;;;;;;;15.13;6.63;;;;;;;;;;6256938;22;20212;-88
2022/10/02 14:32:56;;;;;;;5.80;1.90;;;;;;;;;;6306237;22;20560;-87
2022/10/02 14:35:44;;;;;;;8.03;1.87;;;;;;;;;;6305914;22;20216;-87
2022/10/02 14:38:31;;;;;;;6.37;1.73;;;;;;;;;;6288081;22;20286;-86
2022/10/02 14:41:05;;;;;;;4.53;1.60;;;;;;;;;;6306243;22;20185;-87
2022/10/02 14:43:44;;;;;;;9.53;1.87;;;;;;;;;;6303786;22;20623;-87
2022/10/02 14:46:21;;;;;;;14.07;2.03;;;;;;;;;;6305642;22;20226;-86
2022/10/02 14:49:04;;;;;;;6.67;2.00;;;;;;;;;;6305025;22;20207;-85
2022/10/02 14:51:44;;;;;;;5.03;1.70;;;;;;;;;;6305294;22;20180;-86
2022/10/02 14:54:23;;;;;;;11.93;2.20;;;;;;;;;;6303634;22;20231;-86
2022/10/02 14:57:00;;;;;;;4.23;1.77;;;;;;;;;;6308606;22;20157;-87
2022/10/02 14:59:55;;;;;;;8.13;2.17;;;;;;;;;;6303796;22;20169;-89
2022/10/02 15:02:45;;;;;;;6.60;2.30;;;;;;;;;;6299941;22;20223;-87
2022/10/02 15:05:20;;;;;;;8.27;2.10;;;;;;;;;;6306301;22;20173;-86
2022/10/02 15:07:48;;;;;;;8.43;2.30;;;;;;;;;;6305431;22;20196;-88
2022/10/02 15:10:18;;;;;;;8.90;2.50;;;;;;;;;;6306577;22;20204;-87
2022/10/02 15:12:49;;;;;;;9.37;3.53;;;;;;;;;;6313202;22;20196;-87
2022/10/02 15:15:30;;;;;;;8.53;2.20;;;;;;;;;;6318125;22;20177;-86
2022/10/02 15:21:25;;;;;;;5.90;2.77;;;;;;;;;;6208781;23;20341;-87
2022/10/02 15:23:56;;;;;;;5.20;2.03;;;;;;;;;;6300491;22;20184;-88
2022/10/02 15:26:47;;;;;;;5.00;2.10;;;;;;;;;;6298926;22;20296;-88
2022/10/02 15:29:20;;;;;;;10.20;3.07;;;;;;;;;;6304035;22;20189;-88
2022/10/02 15:32:09;;;;;;;9.00;2.50;;;;;;;;;;6307435;22;20168;-88
2022/10/02 15:34:39;;;;;;;5.63;1.90;;;;;;;;;;6302425;22;20521;-84
2022/10/02 15:37:14;;;;;;;13.40;4.27;;;;;;;;;;6298632;22;20750;-83
2022/10/02 15:40:04;;;;;;;12.93;2.67;;;;;;;;;;6299306;22;20175;-85
2022/10/02 15:42:52;;;;;;;5.40;2.00;;;;;;;;;;6301739;22;20187;-85
2022/10/02 15:45:32;;;;;;;7.93;1.90;;;;;;;;;;6297029;22;20726;-84
2022/10/02 15:48:16;;;;;;;8.50;2.17;;;;;;;;;;6297745;22;20197;-85
2022/10/02 15:53:51;;;;;;;8.73;2.47;;;;;;;;;;6286194;22;20616;-87
2022/10/02 15:56:26;;;;;;;7.87;1.90;;;;;;;;;;6299495;22;20291;-85
2022/10/02 15:58:58;;;;;;;13.10;2.10;;;;;;;;;;6296414;22;20207;-84
2022/10/02 16:01:35;;;;;;;7.83;2.30;;;;;;;;;;6300997;22;20484;-85
2022/10/02 16:04:08;;;;;;;7.83;2.27;;;;;;;;;;6301491;22;20256;-85
2022/10/02 16:06:52;;;;;;;13.90;2.40;;;;;;;;;;6299098;22;20203;-85